Time;durP1;ratioP1;P1;durP2;ratioP2;P2;SDS_P1;SDS_P2;PMS_P1;PMS_P2;Temp;Humidity;BMP_temperature;BMP_pressure;BME280_temperature;BME280_humidity;BME280_pressure;Samples;Min_cycle;Max_cycle;Signal;HPM_P1;HPM_P2
2023/10/02 00:00:06;;;;;;;10.00;6.65;;;;;;;16.46;98.71;101438.03;4971393;28;20242;-66
2023/10/02 00:02:42;;;;;;;11.10;6.25;;;;;;;16.36;100.00;101429.00;4974913;28;20055;-67
2023/10/02 00:05:10;;;;;;;13.55;6.65;;;;;;;16.30;100.00;101436.53;4974393;28;20588;-66
2023/10/02 00:07:42;;;;;;;10.45;6.55;;;;;;;16.30;100.00;101439.19;4971619;28;20070;-66
2023/10/02 00:10:11;;;;;;;9.50;6.15;;;;;;;16.29;100.00;101437.50;4973217;28;20411;-66
2023/10/02 00:12:39;;;;;;;9.52;6.28;;;;;;;16.23;100.00;101437.94;4973075;28;20141;-66
2023/10/02 00:15:12;;;;;;;12.55;6.70;;;;;;;16.18;100.00;101436.47;4977268;28;20054;-66
2023/10/02 00:17:44;;;;;;;11.07;6.75;;;;;;;16.18;100.00;101431.16;4974609;28;20031;-66
2023/10/02 00:20:22;;;;;;;10.02;6.13;;;;;;;16.16;100.00;101433.03;4971534;28;20047;-66
2023/10/02 00:22:50;;;;;;;12.80;6.28;;;;;;;16.15;100.00;101425.19;4967631;28;20081;-67
2023/10/02 00:25:22;;;;;;;11.27;6.80;;;;;;;16.16;100.00;101427.72;4975370;28;20158;-68
2023/10/02 00:27:51;;;;;;;12.30;6.65;;;;;;;16.18;100.00;101424.97;4971780;28;20433;-66
2023/10/02 00:30:21;;;;;;;12.00;6.43;;;;;;;16.15;100.00;101423.38;4972782;28;20101;-67
2023/10/02 00:32:50;;;;;;;11.13;6.60;;;;;;;16.14;100.00;101421.69;4976007;28;20061;-67
2023/10/02 00:35:17;;;;;;;10.38;5.93;;;;;;;16.16;100.00;101427.72;4974091;28;20059;-66
2023/10/02 00:37:45;;;;;;;11.18;6.45;;;;;;;16.16;100.00;101427.72;4970997;28;20146;-66
2023/10/02 00:40:21;;;;;;;11.13;5.95;;;;;;;16.18;100.00;101420.50;4974248;28;20126;-66
2023/10/02 00:42:57;;;;;;;10.77;6.18;;;;;;;16.20;100.00;101423.91;4969740;28;20101;-67
2023/10/02 00:45:38;;;;;;;13.25;6.45;;;;;;;16.24;100.00;101429.00;4970602;28;20133;-66
2023/10/02 00:48:24;;;;;;;12.38;6.10;;;;;;;16.25;99.46;101430.69;4975047;28;20055;-66
2023/10/02 00:50:54;;;;;;;13.35;6.57;;;;;;;16.27;99.04;101427.00;4970045;28;20093;-66
2023/10/02 00:53:48;;;;;;;10.73;6.85;;;;;;;16.24;98.16;101427.19;4972574;28;20058;-67
2023/10/02 00:56:28;;;;;;;16.00;6.82;;;;;;;16.28;98.09;101426.03;4968276;28;20082;-66
2023/10/02 00:59:00;;;;;;;12.07;6.95;;;;;;;16.29;97.91;101430.38;4965565;28;20074;-66
2023/10/02 01:01:35;;;;;;;13.15;7.00;;;;;;;16.31;97.51;101431.13;4973433;28;20442;-65
2023/10/02 01:04:10;;;;;;;9.77;6.10;;;;;;;16.31;97.05;101428.47;4980869;28;20063;-66
2023/10/02 01:09:27;;;;;;;13.07;6.85;;;;;;;16.33;96.64;101426.56;4992393;28;20070;-66
2023/10/02 01:11:58;;;;;;;13.35;7.40;;;;;;;16.35;96.31;101426.47;4979213;28;20066;-66
2023/10/02 01:17:26;;;;;;;15.23;6.88;;;;;;;16.40;95.61;101424.34;4981409;28;20065;-67
2023/10/02 01:19:54;;;;;;;13.10;6.85;;;;;;;16.41;95.46;101426.88;4975497;28;20125;-66
2023/10/02 01:22:30;;;;;;;11.75;6.03;;;;;;;16.42;95.20;101420.59;4973061;28;20077;-67
2023/10/02 01:25:14;;;;;;;11.20;6.43;;;;;;;16.45;94.93;101430.16;4968806;28;20585;-66
2023/10/02 01:27:50;;;;;;;10.13;6.22;;;;;;;16.45;94.76;101427.50;4971273;28;22153;-67
2023/10/02 01:30:20;;;;;;;10.27;5.80;;;;;;;16.45;94.87;101440.78;4970587;28;20377;-66
2023/10/02 01:33:17;;;;;;;14.75;7.22;;;;;;;16.46;94.48;101442.50;4965697;28;20081;-66
2023/10/02 01:35:46;;;;;;;15.77;6.15;;;;;;;16.46;94.35;101439.84;4970071;28;20097;-66
2023/10/02 01:38:34;;;;;;;12.38;6.63;;;;;;;16.46;94.07;101437.19;4968054;28;20071;-67
2023/10/02 01:41:03;;;;;;;10.63;6.25;;;;;;;16.46;93.83;101429.19;4972610;28;20154;-66
2023/10/02 01:43:33;;;;;;;10.15;6.32;;;;;;;16.46;93.71;101434.50;4968353;28;20050;-66
2023/10/02 01:46:00;;;;;;;13.10;7.13;;;;;;;16.44;93.66;101434.63;4972551;28;20641;-65
2023/10/02 01:48:37;;;;;;;13.23;7.25;;;;;;;16.40;92.98;101429.66;4977369;28;20273;-65
2023/10/02 01:51:25;;;;;;;15.40;7.50;;;;;;;16.40;93.17;101437.63;4970033;28;20747;-67
2023/10/02 01:54:03;;;;;;;12.52;6.97;;;;;;;16.44;93.16;101434.63;4967733;28;20058;-67
2023/10/02 01:56:34;;;;;;;13.57;6.93;;;;;;;16.42;92.45;101443.66;4970511;28;20076;-67
2023/10/02 01:59:11;;;;;;;15.38;7.47;;;;;;;16.44;92.60;101431.97;4954772;28;20145;-67
2023/10/02 02:01:52;;;;;;;11.75;6.30;;;;;;;16.44;92.63;101425.81;4977661;28;20073;-66
2023/10/02 02:04:27;;;;;;;10.38;6.38;;;;;;;16.45;92.35;101422.19;4973042;28;20116;-67
2023/10/02 02:06:56;;;;;;;11.20;6.47;;;;;;;16.46;92.34;101424.72;4973115;28;20082;-66
2023/10/02 02:09:30;;;;;;;12.75;7.25;;;;;;;16.46;92.33;101426.53;4970786;28;20074;-66
2023/10/02 02:12:11;;;;;;;13.43;7.30;;;;;;;16.44;91.87;101416.03;4971191;28;20074;-67
2023/10/02 02:14:52;;;;;;;12.30;6.85;;;;;;;16.46;91.82;101423.88;4968028;28;20055;-67
2023/10/02 02:17:45;;;;;;;15.40;6.72;;;;;;;16.45;91.85;101420.38;4968450;28;20055;-66
2023/10/02 02:20:43;;;;;;;12.30;6.90;;;;;;;16.46;91.41;101424.72;4969034;28;20422;-66
2023/10/02 02:23:07;;;;;;;11.57;6.15;;;;;;;16.49;91.47;101420.19;4966696;28;20074;-65
2023/10/02 02:25:34;;;;;;;12.05;6.22;;;;;;;16.49;91.45;101420.19;4967397;28;20166;-67
2023/10/02 02:28:06;;;;;;;14.45;6.68;;;;;;;16.51;91.36;101418.25;4967646;28;20067;-68
2023/10/02 02:30:40;;;;;;;14.23;7.10;;;;;;;16.53;91.07;101416.34;4969672;28;20135;-67
2023/10/02 02:33:08;;;;;;;13.00;7.00;;;;;;;16.55;90.75;101420.56;4971222;28;20059;-66
2023/10/02 02:35:44;;;;;;;11.27;6.32;;;;;;;16.56;90.67;101408.13;4968764;28;20145;-66
2023/10/02 02:38:14;;;;;;;10.23;6.20;;;;;;;16.55;90.99;101406.44;4972567;28;20059;-66
2023/10/02 02:40:42;;;;;;;11.57;6.90;;;;;;;16.54;91.85;101404.75;4970454;28;20110;-67
2023/10/02 02:43:22;;;;;;;12.40;6.78;;;;;;;16.50;91.36;101413.91;4971905;28;20078;-67
2023/10/02 02:45:51;;;;;;;14.50;7.00;;;;;;;16.49;91.60;101413.03;4972469;28;20085;-66
2023/10/02 02:48:18;;;;;;;14.75;6.55;;;;;;;16.45;91.61;101400.94;4978879;28;20051;-66
2023/10/02 02:50:47;;;;;;;12.85;6.70;;;;;;;16.44;91.49;101405.41;4978159;28;20059;-67
2023/10/02 02:53:17;;;;;;;12.02;6.38;;;;;;;16.45;91.37;101411.56;4979310;28;20429;-66
2023/10/02 02:55:45;;;;;;;13.57;7.68;;;;;;;16.43;91.56;101419.63;4978297;28;20054;-66
2023/10/02 02:58:13;;;;;;;13.32;6.85;;;;;;;16.43;91.80;101414.31;4973003;28;20564;-67
2023/10/02 03:00:40;;;;;;;15.95;7.57;;;;;;;16.44;91.57;101415.19;4976908;28;20086;-66
2023/10/02 03:05:58;;;;;;;15.48;7.82;;;;;;;16.37;94.10;101409.44;4974710;28;20195;-66
2023/10/02 03:08:38;;;;;;;11.82;7.35;;;;;;;16.31;93.12;101415.19;4970465;28;20137;-67
2023/10/02 03:11:10;;;;;;;17.48;8.55;;;;;;;16.30;92.79;101412.63;4971674;28;20075;-67
2023/10/02 03:13:40;;;;;;;14.75;8.63;;;;;;;16.28;92.59;101412.75;4975741;28;20105;-68
2023/10/02 03:16:12;;;;;;;15.05;7.93;;;;;;;16.24;93.30;101408.59;4973795;28;20051;-66
2023/10/02 03:18:43;;;;;;;14.52;7.55;;;;;;;16.16;93.49;101401.16;4973062;28;20050;-68
2023/10/02 03:21:24;;;;;;;13.63;7.88;;;;;;;16.07;94.40;101400.97;4981155;28;20485;-66
2023/10/02 03:23:54;;;;;;;16.67;8.10;;;;;;;16.01;94.83;101406.72;4975718;28;20078;-66
2023/10/02 03:27:00;;;;;;;15.25;7.20;;;;;;;15.94;94.91;101404.50;4977562;28;20074;-66
2023/10/02 03:29:21;;;;;;;13.43;7.13;;;;;;;15.92;94.63;101397.56;4977583;28;20137;-68
2023/10/02 03:31:49;;;;;;;15.10;8.60;;;;;;;15.89;94.87;101395.97;4973109;28;20425;-66
2023/10/02 03:34:29;;;;;;;13.73;6.95;;;;;;;15.87;94.87;101397.88;4978009;28;20086;-66
2023/10/02 03:40:00;;;;;;;11.77;7.18;;;;;;;15.75;96.67;101400.53;4972281;28;20050;-67
2023/10/02 03:42:33;;;;;;;15.02;8.18;;;;;;;15.67;96.34;101398.41;4965536;28;20031;-67
2023/10/02 03:45:05;;;;;;;11.30;6.80;;;;;;;15.65;96.50;101390.53;4974067;28;20477;-67
2023/10/02 03:47:37;;;;;;;13.25;7.68;;;;;;;15.61;96.95;101385.50;4980109;28;20082;-66
2023/10/02 03:50:12;;;;;;;12.35;7.45;;;;;;;15.55;98.07;101386.78;4974521;28;20576;-66
2023/10/02 03:52:41;;;;;;;18.08;8.40;;;;;;;15.50;98.18;101388.91;4975775;28;20113;-66
2023/10/02 03:55:17;;;;;;;19.42;8.30;;;;;;;15.49;99.25;101383.69;4974076;28;20083;-65
2023/10/02 03:57:50;;;;;;;12.95;7.65;;;;;;;15.44;99.47;101378.69;4972945;28;20050;-67
2023/10/02 04:00:19;;;;;;;13.95;7.60;;;;;;;15.42;99.08;101376.13;4989357;28;20063;-67
2023/10/02 04:02:49;;;;;;;14.43;7.28;;;;;;;15.42;99.83;101386.75;4972508;28;20065;-66
2023/10/02 04:05:42;;;;;;;11.82;7.38;;;;;;;15.39;99.52;101379.00;4970394;28;20108;-66
2023/10/02 04:08:21;;;;;;;15.68;8.25;;;;;;;15.38;99.85;101376.44;4992907;28;20066;-66
2023/10/02 04:10:51;;;;;;;17.65;8.38;;;;;;;15.36;99.63;101367.75;4975654;28;20043;-67
2023/10/02 04:13:25;;;;;;;13.32;8.23;;;;;;;15.33;99.93;101374.09;4969798;28;20137;-66
2023/10/02 04:18:59;;;;;;;16.45;8.52;;;;;;;15.29;100.00;101375.25;4971731;28;20461;-66
2023/10/02 04:21:28;;;;;;;12.05;7.20;;;;;;;15.24;100.00;101369.41;4967065;28;20054;-66
2023/10/02 04:23:57;;;;;;;15.20;7.78;;;;;;;15.20;100.00;101363.47;4972931;28;20094;-71
2023/10/02 04:26:28;;;;;;;15.93;8.57;;;;;;;15.18;99.84;101359.22;4968796;28;20588;-66
2023/10/02 04:29:13;;;;;;;17.08;8.57;;;;;;;15.20;100.00;101363.47;4970958;28;20180;-65
2023/10/02 04:31:46;;;;;;;15.63;8.15;;;;;;;15.17;100.00;101360.16;4965262;28;20102;-67
2023/10/02 04:36:43;;;;;;;16.45;8.25;;;;;;;15.14;100.00;101371.84;4978203;28;20074;-66
2023/10/02 04:42:11;;;;;;;13.27;8.30;;;;;;;15.07;100.00;101364.38;4974054;28;20078;-67
2023/10/02 04:44:46;;;;;;;15.48;8.60;;;;;;;15.06;99.96;101357.38;4971384;28;20062;-66
2023/10/02 04:47:19;;;;;;;17.60;8.10;;;;;;;15.04;100.00;101359.25;4968460;28;20047;-66
2023/10/02 04:55:42;;;;;;;19.08;10.10;;;;;;;15.00;100.00;101368.41;4974732;28;20133;-67
2023/10/02 04:58:14;;;;;;;17.85;9.20;;;;;;;14.98;100.00;101368.47;4978929;28;20055;-67
2023/10/02 05:03:36;;;;;;;17.48;8.48;;;;;;;14.94;100.00;101369.63;4972027;28;20047;-67
2023/10/02 05:06:04;;;;;;;14.55;8.85;;;;;;;14.94;100.00;101364.31;4971287;28;20089;-66
2023/10/02 05:09:19;;;;;;;15.57;9.02;;;;;;;14.94;100.00;101373.13;4975195;28;20081;-65
2023/10/02 05:14:26;;;;;;;;;;;;;;;14.91;100.00;101368.03;4977850;28;20050;-66
2023/10/02 05:19:56;;;;;;;13.95;8.48;;;;;;;14.88;100.00;101367.38;4974954;28;20046;-66
2023/10/02 05:22:25;;;;;;;16.10;9.43;;;;;;;14.91;100.00;101377.81;4970613;28;20070;-66
2023/10/02 05:24:58;;;;;;;18.85;9.82;;;;;;;14.91;100.00;101377.81;4967297;28;20469;-66
2023/10/02 05:27:30;;;;;;;17.65;9.40;;;;;;;14.90;100.00;101378.72;4956385;28;20062;-66
2023/10/02 05:29:58;;;;;;;18.70;9.65;;;;;;;14.90;100.00;101374.31;4969914;28;20062;-66
2023/10/02 05:32:29;;;;;;;18.83;9.70;;;;;;;14.95;100.00;101366.03;4969919;28;20075;-66
2023/10/02 05:35:03;;;;;;;18.13;9.57;;;;;;;14.99;100.00;101369.31;4978816;28;20081;-65
2023/10/02 05:37:32;;;;;;;16.92;9.38;;;;;;;15.01;100.00;101370.94;5009997;22;20227;-69
2023/10/02 05:43:09;;;;;;;18.15;9.82;;;;;;;15.12;100.00;101375.53;4973459;28;20109;-69
2023/10/02 05:45:39;;;;;;;17.15;9.63;;;;;;;15.14;99.71;101374.47;4970897;28;20050;-70
2023/10/02 05:50:52;;;;;;;18.45;10.02;;;;;;;15.19;99.81;101372.38;4971082;28;20142;-67
2023/10/02 05:53:25;;;;;;;16.67;8.55;;;;;;;15.22;99.71;101381.94;4971513;28;20058;-69
2023/10/02 05:56:05;;;;;;;22.75;10.45;;;;;;;15.24;99.31;101384.47;4969134;28;20054;-69
2023/10/02 05:58:36;;;;;;;18.30;10.18;;;;;;;15.30;98.94;101384.91;4968878;28;20051;-68
2023/10/02 06:01:05;;;;;;;18.05;9.88;;;;;;;15.35;98.50;101389.91;4972939;28;20398;-68
2023/10/02 06:03:36;;;;;;;21.48;10.68;;;;;;;15.35;97.98;101395.22;4968338;28;20113;-67
2023/10/02 06:06:18;;;;;;;22.95;11.18;;;;;;;15.42;97.86;101399.19;4973300;28;20439;-68
2023/10/02 06:09:03;;;;;;;17.75;10.13;;;;;;;15.42;97.45;101394.72;4972672;28;20092;-69
2023/10/02 06:11:34;;;;;;;20.40;10.75;;;;;;;15.51;97.05;101401.22;4972800;28;20054;-68
2023/10/02 06:14:09;;;;;;;18.02;10.50;;;;;;;15.53;97.01;101401.94;4973856;28;20141;-67
2023/10/02 06:16:41;;;;;;;21.88;11.02;;;;;;;15.58;96.38;101399.84;4950099;28;20093;-68
2023/10/02 06:19:15;;;;;;;18.40;10.07;;;;;;;15.62;96.04;101405.78;4973697;28;20637;-69
2023/10/02 06:22:00;;;;;;;16.75;9.80;;;;;;;15.64;95.20;101401.25;4956221;28;20104;-67
2023/10/02 06:24:28;;;;;;;19.42;11.20;;;;;;;15.69;95.48;101407.97;4966269;28;20055;-68
2023/10/02 06:27:16;;;;;;;20.20;10.10;;;;;;;15.76;94.90;101407.53;4965415;28;20086;-69
2023/10/02 06:29:44;;;;;;;21.05;10.48;;;;;;;15.72;94.85;101406.91;4968608;28;20046;-69
2023/10/02 06:32:16;;;;;;;17.83;10.35;;;;;;;15.79;94.36;101407.34;4971574;28;20078;-69
2023/10/02 06:34:44;;;;;;;19.45;10.65;;;;;;;15.84;93.58;101416.66;4956658;28;20059;-70
2023/10/02 06:37:21;;;;;;;19.70;10.93;;;;;;;15.92;93.32;101414.34;4969921;28;20051;-69
2023/10/02 06:42:48;;;;;;;20.80;10.98;;;;;;;15.98;91.78;101407.75;4989120;28;20412;-69
2023/10/02 06:45:25;;;;;;;21.02;10.55;;;;;;;16.01;92.29;101404.06;4968920;28;20052;-67
2023/10/02 06:47:52;;;;;;;26.30;11.52;;;;;;;16.10;91.79;101403.41;4973588;28;20093;-68
2023/10/02 06:50:31;;;;;;;20.73;10.00;;;;;;;16.19;90.92;101402.75;4968238;28;20646;-68
2023/10/02 06:52:59;;;;;;;24.23;11.60;;;;;;;16.28;90.42;101401.28;4975353;28;20050;-68
2023/10/02 06:55:27;;;;;;;17.23;10.15;;;;;;;16.38;90.39;101397.00;4970211;28;20133;-68
2023/10/02 06:57:56;;;;;;;19.98;11.10;;;;;;;16.48;90.12;101403.38;4967057;28;20047;-68
2023/10/02 07:00:36;;;;;;;21.55;11.18;;;;;;;16.50;89.49;101400.59;4969301;28;20466;-66
2023/10/02 07:03:06;;;;;;;15.80;10.00;;;;;;;16.53;89.07;101395.94;4967715;28;20081;-68
2023/10/02 07:05:33;;;;;;;22.38;12.20;;;;;;;16.60;88.51;101410.44;4969022;28;20054;-68
2023/10/02 07:08:26;;;;;;;18.90;10.93;;;;;;;16.66;87.63;101407.38;4982534;28;20050;-69
2023/10/02 07:10:57;;;;;;;24.33;12.02;;;;;;;16.76;87.00;101409.41;4968156;28;20070;-67
2023/10/02 07:13:25;;;;;;;20.70;10.57;;;;;;;16.82;86.94;101408.94;4985157;28;20046;-68
2023/10/02 07:15:57;;;;;;;21.13;11.35;;;;;;;16.99;86.30;101410.38;4952878;28;20082;-68
2023/10/02 07:18:35;;;;;;;18.70;11.27;;;;;;;17.10;85.70;101405.09;4965503;28;20096;-70
2023/10/02 07:21:09;;;;;;;20.88;11.45;;;;;;;17.25;84.88;101408.47;4964021;28;20055;-69
2023/10/02 07:23:37;;;;;;;20.15;11.05;;;;;;;17.28;84.48;101405.56;4971883;28;20486;-70
2023/10/02 07:26:13;;;;;;;18.98;11.35;;;;;;;17.34;83.54;101413.09;4956795;28;20173;-70
2023/10/02 07:28:50;;;;;;;17.73;10.05;;;;;;;17.38;84.05;101414.53;4969763;28;20106;-70
2023/10/02 07:31:19;;;;;;;20.83;12.43;;;;;;;17.40;82.75;101416.13;4973495;28;20137;-72
2023/10/02 07:33:47;;;;;;;26.98;12.73;;;;;;;17.45;83.13;101411.31;4956845;28;20062;-66
2023/10/02 07:36:15;;;;;;;21.70;11.10;;;;;;;17.72;82.15;101403.03;4974689;28;20498;-69
2023/10/02 07:38:46;;;;;;;20.27;11.82;;;;;;;17.97;81.32;101403.84;4975706;28;20054;-71
2023/10/02 07:41:24;;;;;;;20.23;11.32;;;;;;;18.11;80.53;101406.28;4974242;28;20486;-70
2023/10/02 07:43:53;;;;;;;18.85;10.10;;;;;;;18.25;80.31;101407.88;4960875;28;20050;-68
2023/10/02 07:46:22;;;;;;;27.67;11.82;;;;;;;18.33;78.89;101400.13;4976892;28;20382;-69
2023/10/02 07:49:00;;;;;;;25.80;12.98;;;;;;;18.28;77.85;101404.97;4971063;28;20047;-68
2023/10/02 07:51:37;;;;;;;18.35;10.90;;;;;;;18.28;78.89;101404.97;4974642;28;20129;-68
2023/10/02 07:54:12;;;;;;;21.05;11.95;;;;;;;18.44;78.91;101407.25;4974813;28;20042;-68
2023/10/02 07:56:41;;;;;;;21.00;11.50;;;;;;;18.53;77.23;101400.34;4970631;28;20556;-68
2023/10/02 07:59:09;;;;;;;21.63;10.77;;;;;;;18.79;77.31;101406.28;4972705;28;20317;-67
2023/10/02 08:01:39;;;;;;;21.48;10.68;;;;;;;19.03;75.96;101409.59;4973832;28;20054;-69
2023/10/02 08:04:06;;;;;;;18.15;11.00;;;;;;;19.40;75.31;101401.19;4971747;28;20130;-68
2023/10/02 08:06:36;;;;;;;18.38;10.68;;;;;;;19.62;73.50;101394.94;4977306;28;20058;-68
2023/10/02 08:09:35;;;;;;;17.33;9.80;;;;;;;19.65;73.00;101405.38;4967719;28;20085;-68
2023/10/02 08:12:04;;;;;;;20.02;11.52;;;;;;;19.80;72.08;101395.19;4974121;28;20374;-68
2023/10/02 08:14:35;;;;;;;18.63;11.38;;;;;;;20.02;71.36;101395.03;4972261;28;20059;-69
2023/10/02 08:17:17;;;;;;;19.70;11.25;;;;;;;20.34;69.30;101399.41;4963768;28;20550;-70
2023/10/02 08:19:56;;;;;;;20.27;10.57;;;;;;;20.52;69.58;101405.84;4979517;28;20051;-70
2023/10/02 08:22:35;;;;;;;19.13;11.65;;;;;;;20.70;68.45;101401.50;4980051;28;20484;-71
2023/10/02 08:25:13;;;;;;;18.20;10.40;;;;;;;20.98;67.76;101405.25;4970429;28;20070;-68
2023/10/02 08:27:57;;;;;;;20.50;11.20;;;;;;;20.88;66.99;101406.22;4972960;28;20101;-69
2023/10/02 08:30:36;;;;;;;16.92;10.60;;;;;;;21.06;66.35;101404.53;4971264;28;20038;-70
2023/10/02 08:33:18;;;;;;;18.55;10.63;;;;;;;21.15;66.69;101403.69;4970162;28;20168;-67
2023/10/02 08:36:09;;;;;;;16.45;9.55;;;;;;;21.21;66.46;101405.84;4958396;28;20558;-68
2023/10/02 08:38:40;;;;;;;17.38;10.85;;;;;;;21.30;65.81;101398.78;4969151;28;20094;-69
2023/10/02 08:41:08;;;;;;;17.85;10.05;;;;;;;21.27;65.96;101403.56;4966435;28;20061;-68
2023/10/02 08:43:42;;;;;;;23.55;10.43;;;;;;;21.21;66.07;101399.63;4967565;28;20418;-69
2023/10/02 08:46:31;;;;;;;19.10;9.60;;;;;;;21.23;66.83;101400.31;4969709;28;20050;-70
2023/10/02 08:48:57;;;;;;;18.35;10.43;;;;;;;21.44;66.79;101397.53;4974683;28;20105;-70
2023/10/02 08:51:35;;;;;;;17.00;10.07;;;;;;;21.63;66.26;101405.56;4983341;28;20078;-68
2023/10/02 08:54:05;;;;;;;16.42;9.80;;;;;;;21.73;65.92;101392.97;4965880;28;20074;-71
2023/10/02 08:56:48;;;;;;;17.27;10.18;;;;;;;21.94;64.88;101397.31;4976005;28;20089;-70
2023/10/02 08:59:26;;;;;;;17.38;9.82;;;;;;;22.03;64.71;101396.44;4982353;28;20075;-70
2023/10/02 09:02:23;;;;;;;14.40;9.57;;;;;;;22.23;64.04;101394.56;4963093;28;20490;-70
2023/10/02 09:04:55;;;;;;;16.00;9.27;;;;;;;22.49;62.98;101390.19;4965453;28;20162;-69
2023/10/02 09:07:45;;;;;;;20.27;11.00;;;;;;;22.39;62.38;101397.47;4967326;28;20106;-69
2023/10/02 09:13:17;;;;;;;21.13;10.25;;;;;;;22.30;62.67;101402.88;4963986;28;20173;-68
2023/10/02 09:15:46;;;;;;;21.27;10.27;;;;;;;22.58;61.79;101393.81;4963892;28;20051;-68
2023/10/02 09:18:34;;;;;;;17.08;9.43;;;;;;;22.87;61.14;101395.47;4963908;28;20094;-71
2023/10/02 09:21:15;;;;;;;16.30;10.18;;;;;;;22.65;61.79;101394.06;4966112;28;20138;-69
2023/10/02 09:23:51;;;;;;;15.80;9.70;;;;;;;22.84;61.14;101395.81;4964820;28;20134;-69
2023/10/02 09:26:27;;;;;;;18.25;10.05;;;;;;;23.16;61.09;101392.63;4964115;28;20043;-69
2023/10/02 09:29:04;;;;;;;15.52;8.98;;;;;;;23.36;60.20;101386.06;4954844;28;20124;-70
2023/10/02 09:31:34;;;;;;;29.60;9.43;;;;;;;23.63;58.75;101384.25;4965002;28;20129;-67
2023/10/02 09:34:16;;;;;;;16.55;9.10;;;;;;;23.57;58.46;101385.75;4960379;28;20066;-69
2023/10/02 09:37:11;;;;;;;16.33;7.78;;;;;;;23.74;58.57;101378.69;4964237;28;20153;-69
2023/10/02 09:40:09;;;;;;;17.23;8.52;;;;;;;23.69;58.30;101362.19;4953098;28;20474;-70
2023/10/02 09:42:45;;;;;;;18.92;8.57;;;;;;;23.67;58.04;101362.31;4965704;28;20438;-69
2023/10/02 09:45:15;;;;;;;16.35;8.93;;;;;;;23.91;58.34;101360.78;4964399;28;20625;-70
2023/10/02 09:47:42;;;;;;;18.83;9.98;;;;;;;24.00;57.62;101362.50;4980859;28;20078;-70
2023/10/02 09:50:34;;;;;;;14.35;8.68;;;;;;;24.19;56.35;101356.91;4978648;28;20206;-70
2023/10/02 09:53:08;;;;;;;14.32;8.23;;;;;;;24.35;56.21;101349.91;4930897;28;20058;-70
2023/10/02 09:56:12;;;;;;;14.18;7.95;;;;;;;24.39;56.63;101353.97;4932712;28;20067;-70
2023/10/02 09:59:12;;;;;;;13.90;7.75;;;;;;;24.76;55.96;101356.25;4964821;28;20062;-69
2023/10/02 10:01:40;;;;;;;12.60;7.63;;;;;;;24.84;54.28;101358.13;4963032;28;20521;-69
2023/10/02 10:07:09;;;;;;;15.18;8.55;;;;;;;25.12;54.39;101354.16;4964973;28;20087;-67
2023/10/02 10:09:50;;;;;;;19.13;8.07;;;;;;;25.11;53.31;101346.25;4967053;28;20519;-69
2023/10/02 10:12:50;;;;;;;16.92;8.60;;;;;;;24.37;54.38;101346.09;4966051;28;20094;-71
2023/10/02 10:15:23;;;;;;;13.77;8.85;;;;;;;24.45;55.25;101343.44;4970082;28;20047;-70
2023/10/02 10:17:53;;;;;;;13.30;8.25;;;;;;;24.76;54.58;101338.25;4948594;28;20055;-71
2023/10/02 10:20:22;;;;;;;15.63;8.63;;;;;;;24.96;54.57;101346.88;4965496;28;20536;-71
2023/10/02 10:22:56;;;;;;;15.18;7.70;;;;;;;25.20;53.27;101343.38;4965321;28;20072;-70
2023/10/02 10:25:32;;;;;;;14.77;7.90;;;;;;;24.78;54.09;101348.03;4968156;28;20043;-69
2023/10/02 10:28:08;;;;;;;17.38;7.70;;;;;;;24.76;54.70;101346.34;4965138;28;20702;-68
2023/10/02 10:30:39;;;;;;;11.25;7.85;;;;;;;24.98;52.81;101344.00;4966744;28;20187;-70
2023/10/02 10:35:51;;;;;;;13.25;8.27;;;;;;;25.09;53.75;101335.66;4960611;28;20513;-69
2023/10/02 10:38:21;;;;;;;10.93;7.10;;;;;;;25.19;52.79;101336.31;4964977;28;20074;-69
2023/10/02 10:41:00;;;;;;;13.35;7.30;;;;;;;25.56;52.27;101340.31;4966429;28;20109;-72
2023/10/02 10:46:16;;;;;;;12.85;6.95;;;;;;;25.00;52.55;101328.53;4966769;28;20476;-70
2023/10/02 10:49:23;;;;;;;12.45;7.30;;;;;;;25.24;53.57;101327.72;4963696;28;20522;-69
2023/10/02 10:51:52;;;;;;;13.68;7.82;;;;;;;25.57;53.19;101316.91;4963142;28;20051;-69
2023/10/02 10:54:26;;;;;;;14.82;7.30;;;;;;;25.67;52.90;101320.28;4967019;28;20114;-68
2023/10/02 10:57:21;;;;;;;11.15;7.22;;;;;;;25.89;51.68;101314.16;4966861;28;20046;-71
2023/10/02 11:00:23;;;;;;;13.43;7.68;;;;;;;25.55;52.22;101310.84;4964195;28;20050;-70
2023/10/02 11:02:56;;;;;;;11.63;7.45;;;;;;;26.03;52.20;101307.19;4962326;28;20087;-69
2023/10/02 11:05:24;;;;;;;14.15;7.38;;;;;;;25.73;51.85;101301.53;4966145;28;20713;-70
2023/10/02 11:07:55;;;;;;;10.73;7.65;;;;;;;25.62;51.63;101301.03;4968666;28;20486;-68
2023/10/02 11:10:25;;;;;;;10.95;6.68;;;;;;;25.68;51.59;101308.47;4968998;28;20054;-70
2023/10/02 11:13:08;;;;;;;12.15;6.57;;;;;;;25.95;51.50;101307.22;4969878;28;20521;-70
2023/10/02 11:15:54;;;;;;;9.77;5.90;;;;;;;25.95;51.98;101293.75;4970181;28;20054;-71
2023/10/02 11:18:26;;;;;;;8.65;6.20;;;;;;;26.10;51.65;101297.38;4968879;28;20996;-70
2023/10/02 11:20:55;;;;;;;10.68;6.18;;;;;;;26.29;51.15;101306.88;4967429;28;20113;-72
2023/10/02 11:23:48;;;;;;;11.07;5.97;;;;;;;26.50;51.20;101295.50;4968474;28;20117;-69
2023/10/02 11:26:21;;;;;;;12.00;6.20;;;;;;;26.48;50.17;101297.56;4983087;28;20062;-69
2023/10/02 11:28:49;;;;;;;10.40;6.80;;;;;;;26.65;50.35;101287.47;4967759;28;20086;-70
2023/10/02 11:31:45;;;;;;;11.20;6.53;;;;;;;26.57;49.84;101298.31;4966829;28;20070;-71
2023/10/02 11:34:13;;;;;;;10.48;7.00;;;;;;;26.62;49.42;101290.56;4969458;28;20113;-67
2023/10/02 11:37:11;;;;;;;12.93;6.72;;;;;;;27.32;47.99;101278.66;4970669;28;20062;-70
2023/10/02 11:39:38;;;;;;;11.90;6.30;;;;;;;27.90;46.54;101285.16;4969969;28;20058;-70
2023/10/02 11:42:06;;;;;;;16.15;7.88;;;;;;;28.07;44.37;101293.91;4967169;28;20055;-68
2023/10/02 11:44:33;;;;;;;12.63;7.65;;;;;;;27.96;44.58;101290.69;4971531;28;20490;-69
2023/10/02 11:47:00;;;;;;;11.15;7.60;;;;;;;27.87;44.26;101280.94;4970656;28;20055;-68
2023/10/02 11:49:29;;;;;;;11.77;7.88;;;;;;;28.46;43.38;101282.72;4968736;28;20050;-67
2023/10/02 11:52:00;;;;;;;13.98;8.27;;;;;;;27.45;44.21;101281.56;4970809;28;20086;-74
2023/10/02 11:54:28;;;;;;;12.63;8.93;;;;;;;27.82;44.71;101287.94;4969319;28;20053;-70
2023/10/02 11:56:57;;;;;;;12.10;8.38;;;;;;;28.04;43.94;101284.28;4972579;28;20423;-68
2023/10/02 11:59:25;;;;;;;15.48;8.90;;;;;;;28.47;43.06;101281.72;4969552;28;20097;-68
2023/10/02 12:01:53;;;;;;;12.35;7.88;;;;;;;28.48;42.51;101286.09;4970042;28;20059;-72
2023/10/02 12:04:20;;;;;;;14.63;8.93;;;;;;;28.23;43.50;101282.84;4969512;28;20691;-70
2023/10/02 12:06:50;;;;;;;13.13;8.52;;;;;;;28.75;42.37;101281.78;4969242;28;20074;-70
2023/10/02 12:09:18;;;;;;;12.98;8.63;;;;;;;29.75;41.32;101280.72;4971412;28;21204;-70
2023/10/02 12:11:46;;;;;;;11.55;8.75;;;;;;;30.34;39.53;101280.16;4970443;28;20046;-71
2023/10/02 12:14:14;;;;;;;20.48;8.88;;;;;;;31.29;37.67;101274.63;4969553;28;20074;-70
2023/10/02 12:16:41;;;;;;;16.75;9.35;;;;;;;30.38;38.40;101275.97;4966544;28;20923;-66
2023/10/02 12:19:10;;;;;;;14.93;10.02;;;;;;;30.80;37.70;101278.59;4967989;28;20202;-68
2023/10/02 12:21:39;;;;;;;14.25;8.73;;;;;;;31.62;36.87;101269.97;4968330;28;20043;-68
2023/10/02 12:24:17;;;;;;;13.82;9.20;;;;;;;33.72;33.71;101269.84;4970164;28;20051;-71
2023/10/02 12:26:46;;;;;;;12.32;9.07;;;;;;;33.35;33.00;101268.97;4969797;28;20074;-70
2023/10/02 12:29:15;;;;;;;15.13;9.80;;;;;;;33.16;33.44;101263.47;4968030;28;20074;-68
2023/10/02 12:31:43;;;;;;;15.02;9.93;;;;;;;36.06;30.31;101265.88;4966267;28;20058;-70
2023/10/02 12:34:13;;;;;;;13.50;10.43;;;;;;;37.67;27.08;101265.31;4966193;28;20437;-70
2023/10/02 12:36:41;;;;;;;10.75;9.65;;;;;;;38.29;26.29;101269.63;4968205;28;20101;-71
2023/10/02 12:39:12;;;;;;;12.63;10.75;;;;;;;39.48;25.13;101260.13;4967634;28;20136;-71
2023/10/02 12:41:43;;;;;;;14.43;11.65;;;;;;;40.05;23.98;101259.28;4969480;28;20325;-70